Time;durP1;ratioP1;P1;durP2;ratioP2;P2;SDS_P1;SDS_P2;PMS_P1;PMS_P2;Temp;Humidity;BMP_temperature;BMP_pressure;BME280_temperature;BME280_humidity;BME280_pressure;Samples;Min_cycle;Max_cycle;Signal;HPM_P1;HPM_P2
2021/11/26 00:02:22;;;;;;;37.50;10.45;;;;;;;;;;5018418;28;20072;-66
2021/11/26 00:04:51;;;;;;;35.13;10.23;;;;;;;;;;5013434;28;20069;-66
2021/11/26 00:07:20;;;;;;;31.95;10.73;;;;;;;;;;5032319;28;20448;-66
2021/11/26 00:09:52;;;;;;;36.80;9.75;;;;;;;;;;5030724;28;20133;-66
2021/11/26 00:12:20;;;;;;;29.67;9.23;;;;;;;;;;5016931;28;20092;-66
2021/11/26 00:14:52;;;;;;;32.47;8.98;;;;;;;;;;5023388;28;20128;-66
2021/11/26 00:17:21;;;;;;;29.80;8.90;;;;;;;;;;5012837;28;20046;-67
2021/11/26 00:19:50;;;;;;;28.55;9.35;;;;;;;;;;5013028;28;20067;-66
2021/11/26 00:22:18;;;;;;;33.92;9.75;;;;;;;;;;5015488;28;20584;-66
2021/11/26 00:24:49;;;;;;;34.15;8.60;;;;;;;;;;5017743;28;20128;-66
2021/11/26 00:27:18;;;;;;;35.08;9.45;;;;;;;;;;5014090;28;20052;-66
2021/11/26 00:29:47;;;;;;;30.63;9.00;;;;;;;;;;5017675;28;20450;-66
2021/11/26 00:32:15;;;;;;;26.35;8.40;;;;;;;;;;5018902;28;20137;-66
2021/11/26 00:34:44;;;;;;;21.77;7.47;;;;;;;;;;5018080;28;20042;-66
2021/11/26 00:37:12;;;;;;;29.38;7.80;;;;;;;;;;5021021;28;20049;-66
2021/11/26 00:39:41;;;;;;;29.17;8.48;;;;;;;;;;5024223;28;20153;-66
2021/11/26 00:42:09;;;;;;;25.73;8.13;;;;;;;;;;5013160;28;20049;-66
2021/11/26 00:44:39;;;;;;;27.67;8.30;;;;;;;;;;5021449;28;20509;-66
2021/11/26 00:47:07;;;;;;;31.42;8.90;;;;;;;;;;5013815;28;20385;-66
2021/11/26 00:49:36;;;;;;;32.55;9.73;;;;;;;;;;5022096;28;20133;-66
2021/11/26 00:52:05;;;;;;;26.48;9.55;;;;;;;;;;5012379;28;20060;-66
2021/11/26 00:54:33;;;;;;;29.90;8.77;;;;;;;;;;5011579;28;20042;-66
2021/11/26 00:57:07;;;;;;;27.45;9.20;;;;;;;;;;5015189;28;20050;-66
2021/11/26 00:59:36;;;;;;;31.50;9.47;;;;;;;;;;5000995;28;20148;-66
2021/11/26 01:02:06;;;;;;;38.40;9.30;;;;;;;;;;5012783;28;20802;-66
2021/11/26 01:04:36;;;;;;;33.58;9.15;;;;;;;;;;5023705;28;20050;-66
2021/11/26 01:07:04;;;;;;;32.58;9.70;;;;;;;;;;5011158;28;20132;-66
2021/11/26 01:09:32;;;;;;;29.90;8.68;;;;;;;;;;5014520;28;20129;-66
2021/11/26 01:12:01;;;;;;;34.15;9.20;;;;;;;;;;5011314;28;20251;-66
2021/11/26 01:14:29;;;;;;;34.22;11.07;;;;;;;;;;5009277;28;20044;-66
2021/11/26 01:16:58;;;;;;;32.42;8.85;;;;;;;;;;5013236;28;20046;-66
2021/11/26 01:19:27;;;;;;;44.35;10.25;;;;;;;;;;5014190;28;20493;-66
2021/11/26 01:21:56;;;;;;;34.05;9.60;;;;;;;;;;5018044;28;20068;-66
2021/11/26 01:24:24;;;;;;;36.28;9.80;;;;;;;;;;5022768;28;20497;-66
2021/11/26 01:26:52;;;;;;;32.97;8.55;;;;;;;;;;5022878;28;20052;-66
2021/11/26 01:29:21;;;;;;;30.10;8.50;;;;;;;;;;5011232;28;20057;-66
2021/11/26 01:31:49;;;;;;;23.45;7.82;;;;;;;;;;4986778;28;20050;-66
2021/11/26 01:34:25;;;;;;;33.15;9.25;;;;;;;;;;3287662;28;10022483;-66
2021/11/26 01:36:55;;;;;;;30.90;9.32;;;;;;;;;;2247117;28;10001957;-66
2021/11/26 01:39:23;;;;;;;36.67;9.90;;;;;;;;;;5012114;28;20112;-66
2021/11/26 01:41:53;;;;;;;30.00;8.73;;;;;;;;;;5022061;28;20124;-66
2021/11/26 01:44:22;;;;;;;34.05;9.93;;;;;;;;;;5013737;28;20477;-66
2021/11/26 01:46:51;;;;;;;34.60;9.63;;;;;;;;;;5023124;28;20146;-66
2021/11/26 01:49:20;;;;;;;27.30;8.07;;;;;;;;;;5013480;28;20176;-66
2021/11/26 01:51:48;;;;;;;36.05;9.75;;;;;;;;;;5013913;28;20051;-66
2021/11/26 01:54:18;;;;;;;32.97;9.95;;;;;;;;;;5008736;28;20049;-66
2021/11/26 01:56:46;;;;;;;37.17;9.18;;;;;;;;;;5012001;28;20557;-66
2021/11/26 01:59:15;;;;;;;30.85;8.93;;;;;;;;;;5011185;28;20128;-65
2021/11/26 02:01:43;;;;;;;33.30;10.07;;;;;;;;;;5017815;28;20041;-66
2021/11/26 02:04:11;;;;;;;35.85;10.35;;;;;;;;;;5023827;28;20049;-66
2021/11/26 02:06:40;;;;;;;31.70;9.80;;;;;;;;;;5021707;28;20515;-66
2021/11/26 02:09:08;;;;;;;30.58;10.25;;;;;;;;;;5026194;28;20053;-66
2021/11/26 02:11:38;;;;;;;39.65;10.38;;;;;;;;;;5017243;28;20170;-66
2021/11/26 02:14:07;;;;;;;31.10;10.23;;;;;;;;;;5017498;28;20050;-66
2021/11/26 02:16:42;;;;;;;35.35;10.65;;;;;;;;;;5015325;28;20155;-66
2021/11/26 02:19:12;;;;;;;32.47;10.35;;;;;;;;;;5009996;28;20053;-66
2021/11/26 02:21:42;;;;;;;35.28;10.68;;;;;;;;;;5026291;28;20137;-66
2021/11/26 02:24:11;;;;;;;37.65;11.23;;;;;;;;;;5012823;28;20058;-66
2021/11/26 02:26:40;;;;;;;39.28;10.32;;;;;;;;;;5014015;28;20084;-66
2021/11/26 02:29:10;;;;;;;38.15;11.15;;;;;;;;;;5008362;28;20540;-66
2021/11/26 02:31:39;;;;;;;36.72;10.13;;;;;;;;;;5005450;28;20149;-66
2021/11/26 02:34:07;;;;;;;39.47;9.98;;;;;;;;;;5008488;28;20053;-66
2021/11/26 02:36:36;;;;;;;37.22;9.88;;;;;;;;;;5011208;28;20050;-66
2021/11/26 02:39:08;;;;;;;35.28;11.05;;;;;;;;;;5022172;28;20132;-66
2021/11/26 02:41:36;;;;;;;34.78;10.40;;;;;;;;;;5012023;28;20409;-66
2021/11/26 02:44:05;;;;;;;35.60;11.45;;;;;;;;;;5026052;28;20141;-66
2021/11/26 02:46:33;;;;;;;34.15;10.18;;;;;;;;;;5014021;28;20520;-66
2021/11/26 02:49:01;;;;;;;40.28;13.23;;;;;;;;;;5009981;28;20509;-66
2021/11/26 02:51:30;;;;;;;42.00;12.27;;;;;;;;;;5009474;28;20138;-66
2021/11/26 02:53:58;;;;;;;42.78;12.23;;;;;;;;;;5008645;28;20049;-66
2021/11/26 02:56:28;;;;;;;37.97;11.52;;;;;;;;;;5011807;28;20137;-66
2021/11/26 02:58:56;;;;;;;50.28;12.98;;;;;;;;;;5017966;28;20068;-66
2021/11/26 03:01:25;;;;;;;40.67;12.05;;;;;;;;;;5021949;28;20515;-66
2021/11/26 03:03:53;;;;;;;41.83;12.10;;;;;;;;;;5025099;28;20056;-66
2021/11/26 03:06:21;;;;;;;44.00;11.32;;;;;;;;;;5014272;28;20061;-66
2021/11/26 03:08:50;;;;;;;39.22;11.73;;;;;;;;;;5010451;28;20061;-66
2021/11/26 03:11:18;;;;;;;43.95;12.98;;;;;;;;;;5013802;28;20120;-66
2021/11/26 03:13:48;;;;;;;40.63;12.10;;;;;;;;;;5018845;28;20050;-66
2021/11/26 03:16:16;;;;;;;36.05;11.85;;;;;;;;;;5011371;28;20416;-66
2021/11/26 03:18:45;;;;;;;39.08;11.88;;;;;;;;;;5027426;28;20111;-66
2021/11/26 03:21:13;;;;;;;40.53;10.98;;;;;;;;;;5013789;28;20052;-66
2021/11/26 03:23:42;;;;;;;36.47;11.05;;;;;;;;;;5032501;28;20053;-66
2021/11/26 03:26:10;;;;;;;43.67;11.05;;;;;;;;;;5015993;28;20050;-66
2021/11/26 03:28:38;;;;;;;36.10;10.73;;;;;;;;;;5014288;28;20053;-66
2021/11/26 03:31:08;;;;;;;43.22;12.48;;;;;;;;;;5014869;28;20046;-66
2021/11/26 03:33:36;;;;;;;47.22;12.68;;;;;;;;;;5025897;28;20140;-66
2021/11/26 03:36:05;;;;;;;37.00;9.85;;;;;;;;;;5022550;28;20487;-66
2021/11/26 03:38:33;;;;;;;38.80;12.05;;;;;;;;;;5028442;28;20128;-66
2021/11/26 03:41:01;;;;;;;35.90;11.73;;;;;;;;;;5022347;28;20048;-66
2021/11/26 03:43:30;;;;;;;32.95;10.38;;;;;;;;;;5013310;28;20077;-66
2021/11/26 03:45:58;;;;;;;45.05;11.88;;;;;;;;;;5016135;28;20149;-66
2021/11/26 03:48:28;;;;;;;38.75;10.82;;;;;;;;;;5012967;28;20494;-66
2021/11/26 03:50:56;;;;;;;39.55;11.75;;;;;;;;;;5016626;28;20059;-66
2021/11/26 03:53:24;;;;;;;39.03;10.57;;;;;;;;;;5017758;28;20048;-66
2021/11/26 03:55:53;;;;;;;40.70;11.70;;;;;;;;;;5015539;28;20397;-66
2021/11/26 03:58:21;;;;;;;40.45;12.50;;;;;;;;;;5021902;28;20049;-66
2021/11/26 04:00:50;;;;;;;42.83;12.38;;;;;;;;;;5025355;28;20052;-66
2021/11/26 04:03:18;;;;;;;41.25;12.23;;;;;;;;;;5024598;28;20060;-66
2021/11/26 04:05:48;;;;;;;44.17;12.32;;;;;;;;;;4999705;28;20050;-66
2021/11/26 04:08:16;;;;;;;48.60;12.02;;;;;;;;;;5013624;28;20061;-66
2021/11/26 04:10:45;;;;;;;34.55;10.35;;;;;;;;;;5018779;28;20048;-66
2021/11/26 04:13:16;;;;;;;46.88;11.80;;;;;;;;;;5031664;28;20122;-66
2021/11/26 04:15:45;;;;;;;48.17;13.73;;;;;;;;;;5014661;28;20038;-66
2021/11/26 04:18:14;;;;;;;35.38;10.55;;;;;;;;;;5012102;28;20048;-66
2021/11/26 04:20:43;;;;;;;39.80;11.23;;;;;;;;;;5016155;28;20064;-66
2021/11/26 04:23:13;;;;;;;41.17;11.65;;;;;;;;;;5011937;28;20053;-66
2021/11/26 04:25:42;;;;;;;42.13;11.27;;;;;;;;;;5021289;28;20148;-66
2021/11/26 04:28:10;;;;;;;49.08;11.95;;;;;;;;;;5012449;28;20057;-66
2021/11/26 04:30:38;;;;;;;48.13;13.73;;;;;;;;;;5024028;28;20407;-66
2021/11/26 04:33:07;;;;;;;39.25;12.68;;;;;;;;;;5026523;28;20140;-66
2021/11/26 04:35:35;;;;;;;45.10;11.98;;;;;;;;;;5013361;28;20161;-66
2021/11/26 04:38:03;;;;;;;45.45;11.63;;;;;;;;;;5019751;28;20056;-66
2021/11/26 04:40:33;;;;;;;43.95;11.98;;;;;;;;;;5016404;28;20152;-66
2021/11/26 04:43:01;;;;;;;47.20;12.43;;;;;;;;;;5023030;28;20468;-66
2021/11/26 04:45:30;;;;;;;38.67;10.55;;;;;;;;;;5029937;28;20059;-66
2021/11/26 04:47:58;;;;;;;39.88;11.55;;;;;;;;;;5015796;28;20060;-66
2021/11/26 04:50:27;;;;;;;40.40;11.48;;;;;;;;;;5017639;28;20442;-66
2021/11/26 04:52:55;;;;;;;38.88;11.63;;;;;;;;;;5021316;28;20057;-66
2021/11/26 04:55:24;;;;;;;48.42;12.02;;;;;;;;;;5025348;28;20053;-66
2021/11/26 04:57:54;;;;;;;47.10;12.23;;;;;;;;;;5020684;28;20067;-66
2021/11/26 05:00:23;;;;;;;47.95;13.25;;;;;;;;;;5020838;28;20136;-66
2021/11/26 05:02:52;;;;;;;45.78;12.15;;;;;;;;;;5012553;28;20080;-66
2021/11/26 05:05:20;;;;;;;41.22;12.18;;;;;;;;;;5010663;28;20054;-66
2021/11/26 05:07:50;;;;;;;48.70;13.02;;;;;;;;;;5012220;28;20046;-66
2021/11/26 05:10:21;;;;;;;50.65;12.40;;;;;;;;;;5012157;28;20501;-66
2021/11/26 05:12:52;;;;;;;47.92;12.38;;;;;;;;;;5009938;28;20417;-66
2021/11/26 05:15:25;;;;;;;47.30;13.55;;;;;;;;;;5020014;28;20056;-66
2021/11/26 05:17:55;;;;;;;42.78;11.13;;;;;;;;;;5007250;28;20484;-65
2021/11/26 05:20:23;;;;;;;39.60;12.02;;;;;;;;;;5011045;28;20054;-66
2021/11/26 05:22:52;;;;;;;41.10;12.43;;;;;;;;;;5004615;28;20129;-66
2021/11/26 05:25:21;;;;;;;41.08;10.73;;;;;;;;;;5017815;28;20336;-66
2021/11/26 05:27:49;;;;;;;42.53;11.18;;;;;;;;;;5011582;28;20469;-66
2021/11/26 05:30:18;;;;;;;48.60;12.90;;;;;;;;;;5017996;28;20215;-66
2021/11/26 05:32:48;;;;;;;39.63;11.93;;;;;;;;;;5009011;28;20045;-66
2021/11/26 05:35:16;;;;;;;34.22;10.10;;;;;;;;;;5010672;28;20060;-66
2021/11/26 05:37:45;;;;;;;36.72;10.77;;;;;;;;;;5019784;28;20048;-66
2021/11/26 05:40:14;;;;;;;45.80;12.13;;;;;;;;;;5005711;28;20150;-66
2021/11/26 05:42:43;;;;;;;38.22;10.65;;;;;;;;;;5008017;28;20450;-66
2021/11/26 05:45:12;;;;;;;33.20;10.02;;;;;;;;;;5006302;28;20543;-66
2021/11/26 05:47:40;;;;;;;33.65;10.95;;;;;;;;;;5014241;28;20088;-66
2021/11/26 05:50:11;;;;;;;42.03;11.15;;;;;;;;;;5016238;28;20060;-66
2021/11/26 05:52:40;;;;;;;38.80;10.43;;;;;;;;;;5017032;28;20049;-66
2021/11/26 05:55:09;;;;;;;35.70;11.75;;;;;;;;;;5015301;28;20064;-66
2021/11/26 05:57:38;;;;;;;40.22;10.50;;;;;;;;;;5020477;28;20045;-66
2021/11/26 06:00:09;;;;;;;35.35;10.60;;;;;;;;;;5006375;28;20108;-66
2021/11/26 06:02:37;;;;;;;33.72;10.43;;;;;;;;;;5016197;28;20397;-66
2021/11/26 06:05:06;;;;;;;45.83;12.85;;;;;;;;;;5011526;28;20053;-66
2021/11/26 06:07:35;;;;;;;41.67;12.50;;;;;;;;;;5012222;28;20120;-66
2021/11/26 06:10:05;;;;;;;38.75;10.88;;;;;;;;;;5026719;28;20072;-66
2021/11/26 06:12:34;;;;;;;36.78;10.07;;;;;;;;;;5009467;28;20049;-66
2021/11/26 06:15:03;;;;;;;40.83;10.75;;;;;;;;;;5010363;28;20402;-66
2021/11/26 06:17:31;;;;;;;42.38;11.70;;;;;;;;;;5016795;28;20046;-66
2021/11/26 06:20:00;;;;;;;42.75;10.15;;;;;;;;;;5009713;28;20046;-66
2021/11/26 06:22:28;;;;;;;34.22;9.77;;;;;;;;;;5012513;28;20148;-66
2021/11/26 06:24:59;;;;;;;35.35;10.55;;;;;;;;;;5006713;28;20133;-66
2021/11/26 06:27:27;;;;;;;39.38;12.32;;;;;;;;;;5010535;28;20137;-66
2021/11/26 06:29:56;;;;;;;38.33;12.20;;;;;;;;;;5009861;28;20057;-66
2021/11/26 06:32:25;;;;;;;38.40;12.27;;;;;;;;;;5012533;28;20490;-66
2021/11/26 06:34:54;;;;;;;41.40;10.68;;;;;;;;;;5013861;28;20149;-66
2021/11/26 06:37:22;;;;;;;42.72;11.23;;;;;;;;;;5016306;28;20045;-65
2021/11/26 06:39:50;;;;;;;41.90;10.48;;;;;;;;;;5002983;28;20148;-66
2021/11/26 06:42:20;;;;;;;36.78;10.10;;;;;;;;;;5001608;28;20125;-66
2021/11/26 06:44:50;;;;;;;30.15;10.18;;;;;;;;;;5010036;28;20062;-66
2021/11/26 06:47:19;;;;;;;35.55;9.98;;;;;;;;;;5005917;28;20057;-65
2021/11/26 06:49:52;;;;;;;38.80;11.20;;;;;;;;;;5005788;28;20293;-66
2021/11/26 06:52:21;;;;;;;38.72;10.70;;;;;;;;;;5006077;28;20597;-66
2021/11/26 06:54:49;;;;;;;37.65;9.60;;;;;;;;;;5005698;28;20482;-65
2021/11/26 06:57:17;;;;;;;39.03;10.63;;;;;;;;;;5008412;28;20592;-65
2021/11/26 06:59:47;;;;;;;36.60;10.88;;;;;;;;;;5009940;28;20478;-65
2021/11/26 07:02:16;;;;;;;32.28;11.13;;;;;;;;;;5006810;28;20528;-66
2021/11/26 07:04:46;;;;;;;40.50;9.52;;;;;;;;;;5009286;28;20065;-66
2021/11/26 07:07:15;;;;;;;42.88;10.70;;;;;;;;;;5010067;28;20056;-66
2021/11/26 07:09:44;;;;;;;34.72;10.20;;;;;;;;;;5009525;28;20061;-66
2021/11/26 07:12:12;;;;;;;41.35;11.30;;;;;;;;;;5008043;28;20133;-65
2021/11/26 07:14:42;;;;;;;28.27;8.65;;;;;;;;;;5011996;28;20512;-65
2021/11/26 07:17:13;;;;;;;39.72;10.07;;;;;;;;;;5009597;28;20058;-66
2021/11/26 07:19:46;;;;;;;34.30;9.55;;;;;;;;;;5019067;28;20429;-66
2021/11/26 07:22:15;;;;;;;34.88;9.85;;;;;;;;;;5011414;28;20046;-65
2021/11/26 07:24:43;;;;;;;37.97;10.25;;;;;;;;;;5007856;28;20050;-65
2021/11/26 07:27:12;;;;;;;31.17;9.50;;;;;;;;;;5002096;28;20244;-65
2021/11/26 07:29:41;;;;;;;36.45;8.98;;;;;;;;;;5010777;28;20784;-66
2021/11/26 07:32:10;;;;;;;35.75;9.07;;;;;;;;;;5012469;28;20046;-66
2021/11/26 07:34:41;;;;;;;31.73;9.57;;;;;;;;;;5011859;28;20127;-66
2021/11/26 07:37:09;;;;;;;34.88;10.07;;;;;;;;;;5011948;28;20057;-66
2021/11/26 07:39:38;;;;;;;37.17;10.48;;;;;;;;;;5006517;28;20073;-66
2021/11/26 07:42:09;;;;;;;36.72;9.32;;;;;;;;;;5010578;28;20140;-65
2021/11/26 07:44:38;;;;;;;38.97;11.52;;;;;;;;;;4993358;28;20050;-66
2021/11/26 07:47:08;;;;;;;38.78;9.32;;;;;;;;;;5023415;28;20103;-66
2021/11/26 07:49:37;;;;;;;33.13;10.20;;;;;;;;;;5008644;28;20054;-65
2021/11/26 07:52:09;;;;;;;33.75;9.95;;;;;;;;;;5010890;28;20417;-66
2021/11/26 07:54:38;;;;;;;39.58;11.63;;;;;;;;;;5012015;28;20230;-65
2021/11/26 07:57:06;;;;;;;34.28;10.52;;;;;;;;;;5003818;28;20303;-66
2021/11/26 07:59:35;;;;;;;34.15;10.95;;;;;;;;;;5011054;28;20156;-66
2021/11/26 08:02:03;;;;;;;33.70;10.43;;;;;;;;;;5008932;28;20077;-65
2021/11/26 08:04:32;;;;;;;34.45;10.25;;;;;;;;;;5003246;28;20061;-66
2021/11/26 08:07:01;;;;;;;33.65;9.52;;;;;;;;;;5001563;28;20045;-66
2021/11/26 08:09:31;;;;;;;38.45;11.35;;;;;;;;;;5003292;28;20108;-66
2021/11/26 08:11:59;;;;;;;37.20;10.07;;;;;;;;;;5010347;28;20155;-66
2021/11/26 08:14:28;;;;;;;40.00;10.77;;;;;;;;;;5011219;28;20041;-66
2021/11/26 08:16:57;;;;;;;36.00;10.20;;;;;;;;;;5010483;28;20057;-66
2021/11/26 08:19:27;;;;;;;32.55;9.52;;;;;;;;;;5008499;28;20061;-65
2021/11/26 08:21:55;;;;;;;31.38;9.18;;;;;;;;;;5007267;28;20490;-66
2021/11/26 08:24:26;;;;;;;35.65;9.82;;;;;;;;;;5003872;28;20042;-66
2021/11/26 08:26:56;;;;;;;34.15;9.50;;;;;;;;;;5008165;28;20041;-65
2021/11/26 08:29:29;;;;;;;35.83;11.07;;;;;;;;;;5010106;28;20477;-65
2021/11/26 08:31:58;;;;;;;33.97;9.88;;;;;;;;;;5024353;28;20107;-66
2021/11/26 08:34:27;;;;;;;30.92;10.63;;;;;;;;;;5011248;28;20050;-65
2021/11/26 08:36:56;;;;;;;33.88;9.07;;;;;;;;;;5012219;28;21129;-66
2021/11/26 08:39:25;;;;;;;34.42;8.70;;;;;;;;;;5008549;28;20054;-65
2021/11/26 08:41:53;;;;;;;32.13;8.85;;;;;;;;;;5009968;28;20052;-66
2021/11/26 08:44:24;;;;;;;27.38;9.27;;;;;;;;;;5016609;28;20057;-66
2021/11/26 08:46:52;;;;;;;30.60;9.00;;;;;;;;;;5014190;28;20249;-66
2021/11/26 08:49:21;;;;;;;30.20;9.48;;;;;;;;;;5015549;28;20651;-66
2021/11/26 08:51:51;;;;;;;36.63;8.85;;;;;;;;;;5002387;28;20581;-66
2021/11/26 08:54:24;;;;;;;35.92;10.40;;;;;;;;;;5011119;28;20038;-66
2021/11/26 08:56:55;;;;;;;37.95;10.32;;;;;;;;;;5006202;28;20152;-66
2021/11/26 08:59:25;;;;;;;32.65;9.30;;;;;;;;;;5009201;28;20485;-66
2021/11/26 09:01:54;;;;;;;33.05;9.68;;;;;;;;;;5004429;28;20092;-66
2021/11/26 09:04:23;;;;;;;30.30;8.77;;;;;;;;;;5006795;28;20056;-66
2021/11/26 09:06:52;;;;;;;37.83;8.98;;;;;;;;;;5010159;28;20050;-66
2021/11/26 09:09:21;;;;;;;35.15;9.70;;;;;;;;;;5019241;28;20481;-66
2021/11/26 09:11:50;;;;;;;29.63;9.50;;;;;;;;;;5016117;28;20478;-65
2021/11/26 09:14:19;;;;;;;29.67;9.20;;;;;;;;;;5013975;28;20050;-65
2021/11/26 09:16:49;;;;;;;28.48;9.27;;;;;;;;;;5013188;28;20413;-65
2021/11/26 09:19:18;;;;;;;39.15;10.18;;;;;;;;;;5008691;28;20049;-66
2021/11/26 09:21:47;;;;;;;36.15;9.82;;;;;;;;;;5009506;28;20056;-66
2021/11/26 09:24:16;;;;;;;33.70;9.10;;;;;;;;;;5005264;28;20077;-66
2021/11/26 09:26:45;;;;;;;34.55;9.45;;;;;;;;;;5015138;28;20064;-66
2021/11/26 09:29:13;;;;;;;35.35;8.75;;;;;;;;;;5001278;28;20054;-66
2021/11/26 09:31:42;;;;;;;37.03;9.05;;;;;;;;;;5013364;28;20121;-65
2021/11/26 09:34:12;;;;;;;37.28;10.30;;;;;;;;;;5018970;28;20057;-65
2021/11/26 09:36:41;;;;;;;32.65;9.52;;;;;;;;;;5012782;28;20055;-65
2021/11/26 09:39:10;;;;;;;31.67;8.30;;;;;;;;;;5024048;28;20509;-65
2021/11/26 09:41:39;;;;;;;41.80;9.20;;;;;;;;;;5004331;28;20041;-65
2021/11/26 09:44:11;;;;;;;34.60;9.25;;;;;;;;;;5010188;28;20056;-65
2021/11/26 09:46:40;;;;;;;30.90;9.50;;;;;;;;;;5008915;28;20607;-65
2021/11/26 09:49:09;;;;;;;31.30;9.40;;;;;;;;;;5027075;28;20516;-65
2021/11/26 09:51:40;;;;;;;38.58;10.10;;;;;;;;;;5013038;28;20050;-66
2021/11/26 09:54:09;;;;;;;32.28;9.52;;;;;;;;;;5000937;28;20052;-66
2021/11/26 09:56:37;;;;;;;30.00;9.52;;;;;;;;;;5015818;28;20045;-66
2021/11/26 09:59:06;;;;;;;38.58;10.32;;;;;;;;;;5012422;28;20057;-66
2021/11/26 10:01:35;;;;;;;32.75;9.05;;;;;;;;;;5012240;28;20417;-65
2021/11/26 10:04:16;;;;;;;35.33;9.88;;;;;;;;;;5009763;28;20058;-65
2021/11/26 10:06:46;;;;;;;36.08;9.20;;;;;;;;;;5001817;28;20046;-66
2021/11/26 10:09:16;;;;;;;36.88;10.00;;;;;;;;;;5001574;28;20056;-65
2021/11/26 10:11:46;;;;;;;37.22;10.27;;;;;;;;;;5008244;28;20045;-66
2021/11/26 10:14:17;;;;;;;45.47;10.20;;;;;;;;;;5013828;28;20049;-65
2021/11/26 10:16:55;;;;;;;33.00;9.60;;;;;;;;;;5015696;28;20054;-65
2021/11/26 10:19:33;;;;;;;40.33;9.32;;;;;;;;;;5018298;28;20045;-66
2021/11/26 10:22:13;;;;;;;40.80;11.27;;;;;;;;;;5000474;28;20078;-65
2021/11/26 10:24:42;;;;;;;39.35;10.20;;;;;;;;;;5008342;28;20049;-65
2021/11/26 10:27:11;;;;;;;38.03;10.25;;;;;;;;;;5010224;28;20138;-63
2021/11/26 10:29:40;;;;;;;27.95;9.38;;;;;;;;;;5020772;28;20089;-62
2021/11/26 10:32:12;;;;;;;32.15;10.07;;;;;;;;;;5013828;28;20053;-63
2021/11/26 10:34:42;;;;;;;32.65;9.30;;;;;;;;;;5016304;28;20525;-63
2021/11/26 10:37:24;;;;;;;29.73;7.60;;;;;;;;;;5006999;28;20514;-64
2021/11/26 10:39:52;;;;;;;30.05;8.73;;;;;;;;;;5014284;28;20050;-64
2021/11/26 10:42:29;;;;;;;36.13;10.70;;;;;;;;;;5014773;28;20149;-63
2021/11/26 10:45:02;;;;;;;34.60;9.88;;;;;;;;;;4989434;28;20406;-64
2021/11/26 10:47:43;;;;;;;34.30;9.75;;;;;;;;;;4990677;28;20054;-64
2021/11/26 10:50:36;;;;;;;39.53;8.88;;;;;;;;;;4990574;28;20050;-63
2021/11/26 10:58:50;;;;;;;33.67;8.95;;;;;;;;;;5018312;28;20046;-66
2021/11/26 11:01:20;;;;;;;34.30;9.90;;;;;;;;;;4995811;28;20101;-65
2021/11/26 11:03:51;;;;;;;30.92;9.45;;;;;;;;;;5008980;28;20050;-65
2021/11/26 11:06:21;;;;;;;37.63;10.13;;;;;;;;;;5019780;28;20045;-65
2021/11/26 11:09:02;;;;;;;38.00;10.27;;;;;;;;;;5017695;28;20139;-65
2021/11/26 11:11:31;;;;;;;43.22;10.63;;;;;;;;;;4990117;28;20054;-66
2021/11/26 11:14:01;;;;;;;34.17;9.77;;;;;;;;;;5009234;28;20058;-66
2021/11/26 11:16:32;;;;;;;35.85;9.15;;;;;;;;;;5027177;28;20042;-66
2021/11/26 11:19:01;;;;;;;30.25;8.55;;;;;;;;;;5017907;28;20061;-65
2021/11/26 11:21:30;;;;;;;35.35;8.77;;;;;;;;;;5029524;28;20092;-65
2021/11/26 11:24:01;;;;;;;27.30;9.25;;;;;;;;;;5009190;28;20054;-66
2021/11/26 11:26:29;;;;;;;36.53;9.77;;;;;;;;;;5017796;28;20050;-66
2021/11/26 11:28:58;;;;;;;36.67;9.73;;;;;;;;;;5021351;28;20485;-65
2021/11/26 11:31:27;;;;;;;32.55;8.65;;;;;;;;;;5014031;28;20100;-66
2021/11/26 11:33:56;;;;;;;29.70;8.85;;;;;;;;;;5024244;28;20149;-66
2021/11/26 11:36:25;;;;;;;34.97;8.18;;;;;;;;;;5012391;28;20062;-65
2021/11/26 11:39:02;;;;;;;29.83;9.98;;;;;;;;;;5009506;28;20054;-65
2021/11/26 11:41:30;;;;;;;28.52;8.27;;;;;;;;;;5009732;28;20046;-65
2021/11/26 11:43:59;;;;;;;27.60;8.52;;;;;;;;;;5011904;28;20508;-65
2021/11/26 11:46:35;;;;;;;28.65;8.13;;;;;;;;;;5013035;28;20054;-65
2021/11/26 11:49:05;;;;;;;24.85;8.05;;;;;;;;;;5011426;28;20053;-65
2021/11/26 11:51:34;;;;;;;27.95;8.30;;;;;;;;;;5017151;28;20140;-65
2021/11/26 11:54:06;;;;;;;34.80;8.82;;;;;;;;;;5021869;28;20053;-64
2021/11/26 11:56:42;;;;;;;24.30;7.80;;;;;;;;;;5011593;28;20076;-66
2021/11/26 11:59:11;;;;;;;35.58;8.82;;;;;;;;;;5012829;28;20478;-66
2021/11/26 12:01:41;;;;;;;20.55;7.45;;;;;;;;;;5018293;28;20045;-66
2021/11/26 12:04:15;;;;;;;28.30;8.82;;;;;;;;;;5010374;28;20581;-66
2021/11/26 12:06:46;;;;;;;27.53;7.30;;;;;;;;;;5015110;28;20125;-66
2021/11/26 12:09:23;;;;;;;24.40;7.18;;;;;;;;;;5017733;28;20489;-66
2021/11/26 12:11:55;;;;;;;26.17;8.00;;;;;;;;;;5015937;28;20104;-66
2021/11/26 12:14:24;;;;;;;24.67;6.30;;;;;;;;;;5013687;28;20526;-66
2021/11/26 12:17:05;;;;;;;26.73;7.88;;;;;;;;;;4996580;28;20549;-66
2021/11/26 12:19:34;;;;;;;19.73;6.72;;;;;;;;;;5031102;28;20053;-73
2021/11/26 12:22:03;;;;;;;24.42;6.40;;;;;;;;;;5017216;28;20049;-66
2021/11/26 12:24:37;;;;;;;20.52;6.03;;;;;;;;;;5013619;28;20052;-66
2021/11/26 12:27:07;;;;;;;27.67;7.68;;;;;;;;;;5003335;28;20053;-66
2021/11/26 12:29:40;;;;;;;27.63;7.30;;;;;;;;;;5026422;28;20057;-66
2021/11/26 12:32:12;;;;;;;29.92;7.50;;;;;;;;;;5014943;28;20355;-66
2021/11/26 12:34:41;;;;;;;24.98;7.45;;;;;;;;;;5020299;28;20539;-66
2021/11/26 12:37:21;;;;;;;29.90;7.95;;;;;;;;;;5024169;28;20142;-66
2021/11/26 12:39:51;;;;;;;22.50;6.63;;;;;;;;;;5006121;28;20456;-66
2021/11/26 12:42:20;;;;;;;24.40;7.15;;;;;;;;;;4990484;28;20141;-66
2021/11/26 12:44:56;;;;;;;24.77;7.53;;;;;;;;;;5017692;28;20125;-66
2021/11/26 12:47:35;;;;;;;22.65;6.57;;;;;;;;;;4998485;28;20482;-66
2021/11/26 12:52:50;;;;;;;24.92;7.60;;;;;;;;;;5018527;28;20057;-66
2021/11/26 12:55:20;;;;;;;21.63;6.57;;;;;;;;;;5012288;28;20212;-66
2021/11/26 12:57:53;;;;;;;26.50;7.78;;;;;;;;;;5007092;28;20577;-66
2021/11/26 13:00:21;;;;;;;25.95;7.05;;;;;;;;;;5009482;28;20494;-66
2021/11/26 13:02:49;;;;;;;23.45;6.68;;;;;;;;;;5007619;28;20050;-66
2021/11/26 13:05:19;;;;;;;26.70;7.55;;;;;;;;;;5004020;28;20062;-66
2021/11/26 13:07:48;;;;;;;26.90;7.90;;;;;;;;;;5007765;28;20477;-66
2021/11/26 13:10:19;;;;;;;28.25;8.25;;;;;;;;;;5014063;28;20104;-66
2021/11/26 13:12:52;;;;;;;22.80;6.32;;;;;;;;;;5002899;28;20068;-66
2021/11/26 13:15:22;;;;;;;16.90;5.47;;;;;;;;;;5023827;28;20050;-66
2021/11/26 13:17:52;;;;;;;19.50;7.60;;;;;;;;;;5019287;28;20115;-66
2021/11/26 13:20:24;;;;;;;21.33;6.32;;;;;;;;;;5010078;28;20078;-66
2021/11/26 13:22:56;;;;;;;24.67;6.90;;;;;;;;;;5016531;28;20092;-66
2021/11/26 13:25:26;;;;;;;21.98;6.68;;;;;;;;;;5012201;28;20500;-66
2021/11/26 13:27:58;;;;;;;28.00;7.60;;;;;;;;;;5000396;28;20452;-66
2021/11/26 13:30:32;;;;;;;21.38;6.78;;;;;;;;;;5009566;28;20432;-67
2021/11/26 13:33:05;;;;;;;17.73;6.63;;;;;;;;;;5011431;28;20071;-66
2021/11/26 13:35:34;;;;;;;23.27;7.38;;;;;;;;;;5010255;28;20104;-66
2021/11/26 13:38:04;;;;;;;22.20;6.63;;;;;;;;;;5014782;28;20046;-66
2021/11/26 13:40:37;;;;;;;22.02;6.93;;;;;;;;;;5009388;28;20060;-66
2021/11/26 13:43:07;;;;;;;16.85;6.38;;;;;;;;;;5021786;28;20053;-66
2021/11/26 13:45:38;;;;;;;21.10;6.85;;;;;;;;;;5010213;28;20422;-66
2021/11/26 13:48:07;;;;;;;23.98;7.32;;;;;;;;;;5011884;28;20378;-66
2021/11/26 13:50:36;;;;;;;21.10;6.47;;;;;;;;;;4999944;28;20052;-66
2021/11/26 13:53:10;;;;;;;18.97;7.17;;;;;;;;;;5006468;28;20515;-66
2021/11/26 13:55:51;;;;;;;22.45;7.82;;;;;;;;;;5012023;28;20760;-66
2021/11/26 13:58:21;;;;;;;23.50;8.40;;;;;;;;;;5000935;28;20081;-66
2021/11/26 14:00:50;;;;;;;20.05;6.78;;;;;;;;;;5008704;28;20088;-66
2021/11/26 14:03:37;;;;;;;25.15;7.20;;;;;;;;;;5018703;28;20545;-66
2021/11/26 14:06:14;;;;;;;21.10;7.78;;;;;;;;;;4996433;28;20066;-66
2021/11/26 14:08:44;;;;;;;16.63;6.90;;;;;;;;;;5012579;28;20413;-66
2021/11/26 14:11:29;;;;;;;24.77;8.20;;;;;;;;;;5016805;28;20123;-66
2021/11/26 14:14:00;;;;;;;18.33;7.45;;;;;;;;;;5011005;28;20156;-66
2021/11/26 14:16:29;;;;;;;22.85;7.32;;;;;;;;;;5022198;28;20527;-66
2021/11/26 14:18:58;;;;;;;22.95;7.75;;;;;;;;;;5016576;28;20055;-66
2021/11/26 14:21:28;;;;;;;20.77;6.65;;;;;;;;;;5013365;28;20050;-67
2021/11/26 14:23:58;;;;;;;25.67;7.90;;;;;;;;;;5003789;28;20073;-67
2021/11/26 14:26:28;;;;;;;24.85;6.97;;;;;;;;;;5006278;28;20102;-66
2021/11/26 14:29:05;;;;;;;24.98;7.90;;;;;;;;;;5011492;28;20565;-66
2021/11/26 14:31:34;;;;;;;26.27;9.45;;;;;;;;;;5010268;28;20058;-66
2021/11/26 14:34:04;;;;;;;25.13;6.75;;;;;;;;;;5010114;28;20379;-66
2021/11/26 14:36:33;;;;;;;26.98;7.22;;;;;;;;;;5018371;28;20353;-66
2021/11/26 14:39:02;;;;;;;25.67;8.02;;;;;;;;;;5009143;28;20058;-66
2021/11/26 14:41:30;;;;;;;26.13;7.65;;;;;;;;;;5008912;28;20054;-66
2021/11/26 14:44:11;;;;;;;26.63;8.70;;;;;;;;;;4996114;28;20185;-66
2021/11/26 14:46:48;;;;;;;23.48;6.88;;;;;;;;;;5011551;28;20485;-66
2021/11/26 14:49:17;;;;;;;22.38;7.18;;;;;;;;;;4998628;28;20050;-66